createdAt,value
2023-10-23T00:01:23.748Z,5.78
2023-10-23T00:03:50.783Z,5.20
2023-10-23T00:06:17.745Z,5.40
2023-10-23T00:08:47.391Z,8.88
2023-10-23T00:11:23.617Z,7.00
2023-10-23T00:13:50.611Z,6.57
2023-10-23T00:16:17.434Z,6.85
2023-10-23T00:18:44.368Z,6.78
2023-10-23T00:21:11.319Z,7.10
2023-10-23T00:23:38.162Z,7.35
2023-10-23T00:26:06.998Z,7.88
2023-10-23T00:28:34.445Z,7.72
2023-10-23T00:31:01.899Z,7.03
2023-10-23T00:33:29.236Z,8.25
2023-10-23T00:35:56.157Z,7.32
2023-10-23T00:38:22.847Z,8.15
2023-10-23T00:40:49.998Z,7.22
2023-10-23T00:43:22.807Z,7.47
2023-10-23T00:46:01.308Z,8.00
2023-10-23T00:48:28.994Z,10.25
2023-10-23T00:51:00.970Z,8.45
2023-10-23T00:53:39.987Z,7.03
2023-10-23T00:56:07.976Z,7.50
2023-10-23T00:58:40.165Z,7.07
2023-10-23T01:01:09.050Z,7.70
2023-10-23T01:03:35.879Z,7.95
2023-10-23T01:06:03.277Z,8.52
2023-10-23T01:08:30.043Z,10.70
2023-10-23T01:10:57.079Z,10.07
2023-10-23T01:13:23.925Z,8.75
2023-10-23T01:15:51.181Z,7.78
2023-10-23T01:18:18.360Z,8.23
2023-10-23T01:20:46.413Z,8.45
2023-10-23T01:23:13.424Z,11.02
2023-10-23T01:25:40.589Z,9.65
2023-10-23T01:28:07.773Z,8.57
2023-10-23T01:30:35.064Z,7.38
2023-10-23T01:33:02.158Z,11.10
2023-10-23T01:35:29.004Z,6.88
2023-10-23T01:37:56.476Z,12.82
2023-10-23T01:40:23.208Z,8.00
2023-10-23T01:42:51.166Z,8.00
2023-10-23T01:45:20.428Z,8.52
2023-10-23T01:47:47.787Z,14.77
2023-10-23T01:50:14.640Z,8.75
2023-10-23T01:52:42.970Z,12.98
2023-10-23T01:55:10.218Z,13.07
2023-10-23T01:57:37.090Z,10.90
2023-10-23T02:00:08.135Z,11.48
2023-10-23T02:02:34.967Z,9.85
2023-10-23T02:05:02.269Z,9.15
2023-10-23T02:07:29.212Z,11.77
2023-10-23T02:09:58.397Z,13.93
2023-10-23T02:12:25.678Z,13.52
2023-10-23T02:14:54.240Z,11.68
2023-10-23T02:17:21.988Z,15.02
2023-10-23T02:19:49.050Z,13.55
2023-10-23T02:22:16.695Z,16.48
2023-10-23T02:24:43.456Z,12.00
2023-10-23T02:27:10.164Z,11.98
2023-10-23T02:29:37.008Z,14.07
2023-10-23T02:32:03.960Z,13.73
2023-10-23T02:34:30.684Z,18.17
2023-10-23T02:36:57.467Z,18.20
2023-10-23T02:39:24.279Z,14.65
2023-10-23T02:41:51.014Z,14.85
2023-10-23T02:44:17.748Z,16.08
2023-10-23T02:46:44.584Z,15.75
2023-10-23T02:49:11.376Z,20.30
2023-10-23T02:51:39.645Z,17.35
2023-10-23T02:54:06.780Z,15.90
2023-10-23T02:56:34.312Z,18.05
2023-10-23T02:59:01.175Z,24.77
2023-10-23T03:01:27.934Z,17.48
2023-10-23T03:03:54.907Z,21.63
2023-10-23T03:06:21.950Z,16.38
2023-10-23T03:08:49.868Z,15.52
2023-10-23T03:11:16.582Z,16.20
2023-10-23T03:13:43.416Z,19.33
2023-10-23T03:16:10.313Z,17.08
2023-10-23T03:18:37.165Z,16.17
2023-10-23T03:21:03.881Z,27.48
2023-10-23T03:23:34.621Z,20.15
2023-10-23T03:26:03.842Z,22.13
2023-10-23T03:28:30.580Z,22.00
2023-10-23T03:30:57.338Z,19.65
2023-10-23T03:33:24.186Z,18.40
2023-10-23T03:35:50.961Z,19.40
2023-10-23T03:38:17.757Z,19.60
2023-10-23T03:40:56.125Z,20.38
2023-10-23T03:43:22.832Z,17.90
2023-10-23T03:45:49.556Z,15.90
2023-10-23T03:48:16.432Z,20.10
2023-10-23T03:50:43.187Z,18.85
2023-10-23T03:53:09.888Z,20.45
2023-10-23T03:55:39.978Z,19.45
2023-10-23T03:58:06.743Z,22.45
2023-10-23T04:00:33.847Z,19.13
2023-10-23T04:03:00.638Z,17.75
2023-10-23T04:05:27.451Z,16.40
2023-10-23T04:07:54.185Z,18.02
2023-10-23T04:10:20.949Z,24.33
2023-10-23T04:12:48.073Z,19.00
2023-10-23T04:15:14.809Z,17.90
2023-10-23T04:17:41.584Z,19.05
2023-10-23T04:20:09.210Z,18.00
2023-10-23T04:22:35.988Z,20.35
2023-10-23T04:25:02.835Z,17.88
2023-10-23T04:27:29.793Z,20.40
2023-10-23T04:29:58.830Z,20.23
2023-10-23T04:32:25.507Z,24.48
2023-10-23T04:34:52.395Z,18.20
2023-10-23T04:37:19.114Z,25.55
2023-10-23T04:39:46.326Z,21.10
2023-10-23T04:42:13.046Z,19.85
2023-10-23T04:44:39.731Z,21.73
2023-10-23T04:47:06.738Z,21.15
2023-10-23T04:49:33.868Z,19.70
2023-10-23T04:52:00.754Z,19.23
2023-10-23T04:54:27.691Z,24.15
2023-10-23T04:56:54.492Z,21.30
2023-10-23T04:59:21.199Z,18.88
2023-10-23T05:01:48.246Z,21.77
2023-10-23T05:04:15.254Z,18.13
2023-10-23T05:06:42.100Z,18.13
2023-10-23T05:09:09.058Z,19.95
2023-10-23T05:11:35.886Z,18.85
2023-10-23T05:14:02.786Z,18.00
2023-10-23T05:16:29.692Z,18.33
2023-10-23T05:18:56.638Z,22.35
2023-10-23T05:21:23.557Z,22.00
2023-10-23T05:23:50.354Z,20.38
2023-10-23T05:26:17.433Z,20.30
2023-10-23T05:28:44.314Z,24.67
2023-10-23T05:31:11.289Z,20.67
2023-10-23T05:33:38.720Z,22.50
2023-10-23T05:36:07.613Z,18.05
2023-10-23T05:38:34.671Z,22.92
2023-10-23T05:41:01.600Z,19.92
2023-10-23T05:43:28.816Z,22.75
2023-10-23T05:45:56.762Z,19.70
2023-10-23T05:48:24.126Z,22.10
2023-10-23T05:50:59.871Z,22.00
2023-10-23T05:53:27.195Z,20.85
2023-10-23T05:55:54.579Z,22.05
2023-10-23T05:58:21.922Z,21.17
2023-10-23T06:00:48.831Z,23.08
2023-10-23T06:03:15.586Z,24.45
2023-10-23T06:05:43.190Z,26.52
2023-10-23T06:08:10.947Z,23.60
2023-10-23T06:10:44.856Z,24.60
2023-10-23T06:13:13.117Z,23.83
2023-10-23T06:15:40.289Z,28.70
2023-10-23T06:18:08.292Z,20.13
2023-10-23T06:20:35.490Z,22.98
2023-10-23T06:23:02.594Z,23.60
2023-10-23T06:25:30.794Z,24.13
2023-10-23T06:27:58.173Z,23.40
2023-10-23T06:30:25.088Z,26.48
2023-10-23T06:32:51.909Z,25.70
2023-10-23T06:35:18.968Z,21.70
2023-10-23T06:37:46.026Z,20.98
2023-10-23T06:40:13.263Z,22.38
2023-10-23T06:42:40.183Z,24.38
2023-10-23T06:45:08.042Z,26.13
2023-10-23T06:47:35.427Z,28.35
2023-10-23T06:50:04.231Z,31.35
2023-10-23T06:52:30.937Z,29.73
2023-10-23T06:54:57.811Z,26.73
2023-10-23T06:57:24.905Z,26.30
2023-10-23T06:59:55.697Z,21.67
2023-10-23T07:02:23.105Z,25.33
2023-10-23T07:04:50.356Z,23.38
2023-10-23T07:07:28.720Z,23.15
2023-10-23T07:10:01.092Z,23.70
2023-10-23T07:12:28.476Z,25.52
2023-10-23T07:14:55.233Z,19.08
2023-10-23T07:17:22.519Z,21.27
2023-10-23T07:19:49.330Z,23.65
2023-10-23T07:22:16.101Z,18.48
2023-10-23T07:24:43.011Z,20.42
2023-10-23T07:27:13.539Z,19.25
2023-10-23T07:29:40.916Z,21.15
2023-10-23T07:32:08.042Z,24.17
2023-10-23T07:34:34.791Z,16.48
2023-10-23T07:37:04.532Z,16.83
2023-10-23T07:39:33.446Z,20.40
2023-10-23T07:42:01.574Z,16.95
2023-10-23T07:44:28.584Z,18.08
2023-10-23T07:46:55.423Z,18.15
2023-10-23T07:49:22.277Z,16.33
2023-10-23T07:51:49.267Z,15.27
2023-10-23T07:54:17.791Z,17.20
2023-10-23T07:56:46.994Z,15.13
2023-10-23T07:59:15.058Z,16.10
2023-10-23T08:01:41.886Z,16.67
2023-10-23T08:04:08.785Z,13.93
2023-10-23T08:06:35.846Z,18.25
2023-10-23T08:09:05.151Z,15.70
2023-10-23T08:11:31.952Z,12.98
2023-10-23T08:13:59.795Z,13.10
2023-10-23T08:16:27.004Z,11.70
2023-10-23T08:18:54.015Z,12.15
2023-10-23T08:21:23.074Z,11.05
2023-10-23T08:23:54.443Z,14.23
2023-10-23T08:26:22.601Z,13.63
2023-10-23T08:29:02.157Z,11.77
2023-10-23T08:31:39.218Z,12.18
2023-10-23T08:34:08.687Z,13.27
2023-10-23T08:36:36.124Z,11.07
2023-10-23T08:39:04.710Z,13.07
2023-10-23T08:41:32.920Z,9.60
2023-10-23T08:44:00.057Z,13.02
2023-10-23T08:46:28.638Z,9.85
2023-10-23T08:48:55.647Z,15.07
2023-10-23T08:51:22.687Z,11.05
2023-10-23T08:56:27.040Z,9.93
2023-10-23T08:58:59.292Z,11.45
2023-10-23T09:01:27.443Z,15.43
2023-10-23T09:04:04.383Z,10.95
2023-10-23T09:06:34.012Z,11.18
2023-10-23T09:09:01.221Z,10.80
2023-10-23T09:11:46.001Z,10.18
2023-10-23T09:14:28.005Z,10.65
2023-10-23T09:16:57.362Z,12.80
2023-10-23T09:19:39.094Z,9.00
2023-10-23T09:22:08.409Z,8.35
2023-10-23T09:24:37.368Z,10.00
2023-10-23T09:27:04.748Z,10.27
2023-10-23T09:29:32.078Z,6.95
2023-10-23T09:32:00.746Z,11.30
2023-10-23T09:34:29.445Z,10.00
2023-10-23T09:36:57.288Z,12.82
2023-10-23T09:39:24.395Z,7.13
2023-10-23T09:41:52.321Z,8.45
2023-10-23T09:44:19.596Z,8.32
2023-10-23T09:46:48.447Z,8.75
2023-10-23T09:49:16.654Z,6.93
2023-10-23T09:51:48.345Z,8.02
2023-10-23T09:54:21.673Z,6.18
2023-10-23T09:56:53.922Z,14.32
2023-10-23T09:59:28.155Z,9.25
2023-10-23T10:02:01.177Z,6.30
2023-10-23T10:04:37.684Z,5.95
2023-10-23T10:07:23.100Z,9.05
2023-10-23T10:09:51.475Z,6.13
2023-10-23T10:12:19.978Z,6.72
2023-10-23T10:14:48.309Z,12.52
2023-10-23T10:17:18.234Z,5.93
2023-10-23T10:19:46.631Z,5.30
2023-10-23T10:22:23.657Z,7.03
2023-10-23T10:24:52.101Z,8.43
2023-10-23T10:27:19.536Z,6.25
2023-10-23T10:29:46.275Z,8.10
2023-10-23T10:32:14.222Z,8.45
2023-10-23T10:34:47.434Z,6.63
2023-10-23T10:39:49.611Z,8.30
2023-10-23T10:42:21.486Z,10.23
2023-10-23T10:44:54.883Z,7.35
2023-10-23T10:47:23.092Z,8.38
2023-10-23T10:49:52.045Z,7.85
2023-10-23T10:52:29.920Z,8.00
2023-10-23T10:54:57.146Z,8.23
2023-10-23T10:57:24.016Z,7.85
2023-10-23T11:00:00.696Z,7.75
2023-10-23T11:02:28.065Z,10.38
2023-10-23T11:04:54.799Z,6.65
2023-10-23T11:07:26.320Z,5.40
2023-10-23T11:09:54.447Z,5.60
2023-10-23T11:12:22.283Z,4.03
2023-10-23T11:14:49.129Z,5.97
2023-10-23T11:17:16.621Z,8.18
2023-10-23T11:19:44.435Z,4.38
2023-10-23T11:22:13.411Z,4.78
2023-10-23T11:24:41.606Z,7.05
2023-10-23T11:27:08.891Z,4.35
2023-10-23T11:29:40.240Z,6.50
2023-10-23T11:32:08.386Z,5.38
2023-10-23T11:34:38.889Z,6.10
2023-10-23T11:37:07.629Z,8.40
2023-10-23T11:39:37.073Z,7.15
2023-10-23T11:42:05.583Z,4.18
2023-10-23T11:44:37.698Z,4.03
2023-10-23T11:47:09.140Z,3.50
2023-10-23T11:49:36.425Z,6.05
2023-10-23T11:52:04.059Z,2.83
2023-10-23T11:54:31.179Z,4.25
2023-10-23T11:56:59.913Z,5.53
2023-10-23T11:59:27.889Z,3.30
2023-10-23T12:01:56.533Z,4.68
2023-10-23T12:04:24.357Z,4.53
2023-10-23T12:06:51.574Z,9.70
2023-10-23T12:09:18.444Z,6.07
2023-10-23T12:11:45.607Z,4.63
2023-10-23T12:14:12.691Z,2.75
2023-10-23T12:16:39.785Z,3.97
2023-10-23T12:19:06.632Z,2.80
2023-10-23T12:21:33.620Z,5.57
2023-10-23T12:24:00.391Z,5.47
2023-10-23T12:26:27.850Z,6.22
2023-10-23T12:28:54.703Z,4.07
2023-10-23T12:31:22.537Z,4.60
2023-10-23T12:33:51.533Z,6.30
2023-10-23T12:36:18.482Z,4.22
2023-10-23T12:38:45.327Z,5.63
2023-10-23T12:41:12.895Z,3.90
2023-10-23T12:43:39.667Z,4.85
2023-10-23T12:46:06.620Z,5.30
2023-10-23T12:48:33.552Z,3.13
2023-10-23T12:51:00.457Z,5.22
2023-10-23T12:53:27.404Z,6.25
2023-10-23T12:55:54.144Z,5.55
2023-10-23T12:58:20.888Z,2.58
2023-10-23T13:00:47.718Z,3.58
2023-10-23T13:03:14.731Z,4.97
2023-10-23T13:05:41.590Z,4.45
2023-10-23T13:08:08.318Z,2.72
2023-10-23T13:10:35.065Z,3.33
2023-10-23T13:13:02.019Z,2.92
2023-10-23T13:18:11.703Z,2.63
2023-10-23T13:21:26.907Z,5.45
2023-10-23T13:23:25.205Z,3.75
2023-10-23T13:26:05.992Z,5.18
2023-10-23T13:28:39.371Z,11.55
2023-10-23T13:31:06.497Z,2.60
2023-10-23T13:33:33.283Z,4.97
2023-10-23T13:36:00.629Z,5.28
2023-10-23T13:38:27.786Z,4.13
2023-10-23T13:40:56.624Z,6.40
2023-10-23T13:43:23.934Z,6.45
2023-10-23T13:45:50.991Z,5.47
2023-10-23T13:48:17.951Z,6.80
2023-10-23T13:50:50.401Z,5.90
2023-10-23T13:53:18.903Z,7.27
2023-10-23T13:55:46.619Z,2.90
2023-10-23T13:58:13.814Z,5.53
2023-10-23T14:00:41.185Z,6.97
2023-10-23T14:03:08.488Z,4.03
2023-10-23T14:05:35.784Z,4.85
2023-10-23T14:08:03.219Z,3.47
2023-10-23T14:10:30.518Z,5.25
2023-10-23T14:12:58.048Z,5.35
2023-10-23T14:15:25.274Z,5.93
2023-10-23T14:17:52.264Z,4.82
2023-10-23T14:20:19.347Z,5.43
2023-10-23T14:22:46.507Z,4.43
2023-10-23T14:25:13.608Z,3.55
2023-10-23T14:27:42.236Z,5.70
2023-10-23T14:30:09.775Z,5.63
2023-10-23T14:32:37.506Z,8.13
2023-10-23T14:35:05.194Z,4.68
2023-10-23T14:37:32.473Z,5.88
2023-10-23T14:39:59.648Z,7.53
2023-10-23T14:42:26.640Z,8.18
2023-10-23T14:44:53.460Z,8.30
2023-10-23T14:47:20.270Z,7.60
2023-10-23T14:49:47.543Z,5.43
2023-10-23T14:52:14.796Z,6.63
2023-10-23T14:54:41.724Z,4.78
2023-10-23T14:57:08.915Z,5.50
2023-10-23T14:59:35.629Z,4.88
2023-10-23T15:02:02.469Z,6.97
2023-10-23T15:04:29.548Z,6.90
2023-10-23T15:06:56.386Z,6.82
2023-10-23T15:09:23.172Z,5.13
2023-10-23T15:11:50.031Z,7.30
2023-10-23T15:14:17.255Z,3.10
2023-10-23T15:16:44.295Z,5.63
2023-10-23T15:19:11.088Z,6.10
2023-10-23T15:21:40.078Z,8.18
2023-10-23T15:24:10.507Z,3.35
2023-10-23T15:26:38.290Z,8.57
2023-10-23T15:29:05.140Z,4.75
2023-10-23T15:31:32.057Z,7.53
2023-10-23T15:33:58.897Z,5.97
2023-10-23T15:36:26.951Z,10.30
2023-10-23T15:38:54.217Z,11.48
2023-10-23T15:41:21.062Z,11.75
2023-10-23T15:43:57.185Z,14.05
2023-10-23T15:46:24.101Z,17.73
2023-10-23T15:48:51.980Z,10.45
2023-10-23T15:51:18.893Z,13.15
2023-10-23T15:53:45.816Z,10.43
2023-10-23T15:56:12.713Z,8.48
2023-10-23T15:58:39.539Z,9.05
2023-10-23T16:01:06.720Z,8.65
2023-10-23T16:03:35.843Z,12.27
2023-10-23T16:06:05.135Z,11.68
2023-10-23T16:08:31.994Z,17.77
2023-10-23T16:11:00.596Z,17.67
2023-10-23T16:13:31.825Z,19.95
2023-10-23T16:16:06.602Z,26.95
2023-10-23T16:18:43.634Z,26.30
2023-10-23T16:21:13.668Z,34.78
2023-10-23T16:23:40.406Z,28.17
2023-10-23T16:26:07.316Z,23.58
2023-10-23T16:28:34.063Z,13.20
2023-10-23T16:31:01.067Z,11.02
2023-10-23T16:33:27.861Z,15.40
2023-10-23T16:35:54.670Z,14.55
2023-10-23T16:38:21.574Z,16.50
2023-10-23T16:40:48.316Z,16.50
2023-10-23T16:43:19.088Z,16.92
2023-10-23T16:45:46.073Z,18.08
2023-10-23T16:48:13.023Z,16.90
2023-10-23T16:50:40.123Z,16.40
2023-10-23T16:53:07.089Z,14.18
2023-10-23T16:55:34.037Z,9.50
2023-10-23T16:58:00.990Z,14.18
2023-10-23T17:00:28.548Z,12.40
2023-10-23T17:02:56.176Z,10.75
2023-10-23T17:05:23.198Z,10.13
2023-10-23T17:07:50.057Z,10.00
2023-10-23T17:10:18.294Z,13.88
2023-10-23T17:12:45.180Z,15.13
2023-10-23T17:15:12.012Z,12.50
2023-10-23T17:17:39.116Z,14.00
2023-10-23T17:20:08.686Z,14.30
2023-10-23T17:22:37.266Z,15.95
2023-10-23T17:25:04.997Z,12.57
2023-10-23T17:27:31.868Z,16.25
2023-10-23T17:29:59.124Z,17.00
2023-10-23T17:32:25.916Z,22.83
2023-10-23T17:34:52.741Z,20.92
2023-10-23T17:37:19.549Z,22.40
2023-10-23T17:39:46.316Z,16.70
2023-10-23T17:42:13.105Z,20.80
2023-10-23T17:44:39.816Z,20.92
2023-10-23T17:47:06.697Z,18.67
2023-10-23T17:49:33.583Z,25.70
2023-10-23T17:52:00.563Z,22.42
2023-10-23T17:54:27.504Z,13.73
2023-10-23T17:56:54.245Z,13.68
2023-10-23T17:59:20.969Z,47.03
2023-10-23T18:01:47.926Z,45.83
2023-10-23T18:04:14.847Z,37.45
2023-10-23T18:06:41.707Z,36.90
2023-10-23T18:09:08.499Z,37.65
2023-10-23T18:11:35.388Z,36.47
2023-10-23T18:14:02.373Z,38.30
2023-10-23T18:16:29.480Z,54.80
2023-10-23T18:18:56.831Z,48.95
2023-10-23T18:21:24.344Z,65.43
2023-10-23T18:23:52.672Z,67.97
2023-10-23T18:26:19.928Z,56.13
2023-10-23T18:28:46.883Z,34.70
2023-10-23T18:31:14.043Z,22.88
2023-10-23T18:33:40.853Z,18.90
2023-10-23T18:36:14.412Z,15.60
2023-10-23T18:38:42.892Z,16.35
2023-10-23T18:41:10.124Z,13.65
2023-10-23T18:43:37.270Z,18.60
2023-10-23T18:46:04.354Z,15.75
2023-10-23T18:48:33.049Z,15.10
2023-10-23T18:51:03.107Z,15.13
2023-10-23T18:53:30.124Z,15.27
2023-10-23T18:55:56.836Z,14.90
2023-10-23T18:58:24.020Z,15.60
2023-10-23T19:00:51.485Z,18.42
2023-10-23T19:03:18.745Z,20.77
2023-10-23T19:05:46.533Z,33.45
2023-10-23T19:08:13.812Z,48.88
2023-10-23T19:10:41.075Z,36.08
2023-10-23T19:13:09.035Z,31.80
2023-10-23T19:15:36.068Z,32.50
2023-10-23T19:18:03.617Z,29.60
2023-10-23T19:20:30.611Z,24.40
2023-10-23T19:22:57.463Z,25.63
2023-10-23T19:25:24.319Z,24.40
2023-10-23T19:27:51.628Z,21.15
2023-10-23T19:30:18.825Z,35.55
2023-10-23T19:32:48.133Z,35.25
2023-10-23T19:35:16.612Z,27.23
2023-10-23T19:37:43.702Z,20.10
2023-10-23T19:40:11.636Z,22.50
2023-10-23T19:42:42.886Z,21.67
2023-10-23T19:45:11.445Z,18.67
2023-10-23T19:47:38.614Z,18.13
2023-10-23T19:50:06.771Z,15.20
2023-10-23T19:52:37.463Z,16.27
2023-10-23T19:55:45.190Z,16.98
2023-10-23T19:57:55.109Z,17.40
2023-10-23T20:00:22.022Z,16.08
2023-10-23T20:02:48.796Z,15.63
2023-10-23T20:05:15.579Z,18.88
2023-10-23T20:07:42.478Z,23.13
2023-10-23T20:10:09.844Z,19.95
2023-10-23T20:12:36.754Z,25.15
2023-10-23T20:15:04.530Z,30.70
2023-10-23T20:17:31.285Z,25.52
2023-10-23T20:19:58.263Z,33.22
2023-10-23T20:22:25.115Z,29.50
2023-10-23T20:24:53.462Z,35.70
2023-10-23T20:27:21.122Z,36.15
2023-10-23T20:29:47.932Z,37.72
2023-10-23T20:32:14.881Z,28.48
2023-10-23T20:34:41.698Z,24.00
2023-10-23T20:37:08.644Z,29.50
2023-10-23T20:39:35.400Z,28.95
2023-10-23T20:42:02.361Z,21.85
2023-10-23T20:44:29.172Z,17.48
2023-10-23T20:46:56.649Z,28.88
2023-10-23T20:49:23.555Z,31.83
2023-10-23T20:51:50.283Z,23.00
2023-10-23T20:54:18.780Z,40.15
2023-10-23T20:56:45.495Z,34.30
2023-10-23T20:59:12.182Z,32.17
2023-10-23T21:01:39.001Z,26.42
2023-10-23T21:04:05.872Z,31.25
2023-10-23T21:06:32.867Z,29.30
2023-10-23T21:09:00.160Z,32.58
2023-10-23T21:11:28.469Z,31.08
2023-10-23T21:13:55.218Z,39.58
2023-10-23T21:16:24.741Z,37.25
2023-10-23T21:18:52.003Z,46.60
2023-10-23T21:21:19.570Z,53.03
2023-10-23T21:23:46.552Z,47.63
2023-10-23T21:26:13.569Z,47.42
2023-10-23T21:28:42.917Z,37.55
2023-10-23T21:31:10.887Z,30.35
2023-10-23T21:33:37.884Z,25.67
2023-10-23T21:36:05.256Z,24.38
2023-10-23T21:38:32.812Z,18.90
2023-10-23T21:40:59.570Z,13.95
2023-10-23T21:43:26.745Z,13.35
2023-10-23T21:46:09.324Z,15.40
2023-10-23T21:48:40.444Z,14.50
2023-10-23T21:51:07.782Z,13.10
2023-10-23T21:53:35.326Z,10.52
2023-10-23T21:56:02.556Z,14.93
2023-10-23T21:59:05.632Z,15.27
2023-10-23T22:01:18.449Z,15.63
2023-10-23T22:03:46.373Z,20.45
2023-10-23T22:06:14.531Z,22.67
2023-10-23T22:08:42.566Z,19.30
2023-10-23T22:11:11.008Z,18.95
2023-10-23T22:13:38.464Z,21.30
2023-10-23T22:16:06.300Z,21.58
2023-10-23T22:18:35.254Z,19.88
2023-10-23T22:21:03.937Z,21.55
2023-10-23T22:23:30.890Z,19.88
2023-10-23T22:26:00.273Z,19.23
2023-10-23T22:28:27.552Z,19.45
2023-10-23T22:30:55.222Z,17.90
2023-10-23T22:33:22.449Z,14.82
2023-10-23T22:35:49.337Z,16.65
2023-10-23T22:38:16.163Z,17.70
2023-10-23T22:40:43.800Z,14.13
2023-10-23T22:43:11.136Z,13.25
2023-10-23T22:45:50.828Z,18.50
2023-10-23T22:48:24.819Z,14.93
2023-10-23T22:50:53.075Z,18.83
2023-10-23T22:53:20.210Z,16.85
2023-10-23T22:55:49.815Z,19.02
2023-10-23T22:58:19.508Z,17.50
2023-10-23T23:00:46.669Z,18.17
2023-10-23T23:03:13.610Z,19.70
2023-10-23T23:05:44.244Z,18.00
2023-10-23T23:08:13.836Z,14.60
2023-10-23T23:10:40.943Z,16.60
2023-10-23T23:13:07.938Z,16.48
2023-10-23T23:15:35.511Z,11.73
2023-10-23T23:18:06.608Z,12.20
2023-10-23T23:20:38.054Z,15.60
2023-10-23T23:23:04.825Z,15.82
2023-10-23T23:25:31.576Z,14.93
2023-10-23T23:27:58.433Z,12.10
2023-10-23T23:30:25.127Z,23.88
2023-10-23T23:32:51.925Z,12.07
2023-10-23T23:35:18.865Z,11.70
2023-10-23T23:37:45.737Z,15.15
2023-10-23T23:40:12.887Z,15.10
2023-10-23T23:42:39.785Z,16.60
2023-10-23T23:45:07.091Z,12.52
2023-10-23T23:47:34.067Z,12.68
2023-10-23T23:50:00.772Z,12.10
2023-10-23T23:52:27.983Z,14.75
2023-10-23T23:54:54.865Z,12.55
2023-10-23T23:57:21.605Z,12.30
2023-10-23T23:59:48.311Z,10.45
